AAL2775 KORD-KSEA
Flight info
| Callsign | AAL2775 |
|---|---|
| Flight time | N/A |
| Altitude | 32000 |
| Route | MYKIE MONNY IANNA FSD DPR/N0456F340 LWT MLP GLASR3 |
| Aircraft | A321/M-SDE3FGHIRWY/LB1 |
Departure
| Time | 2026-05-01 15:09 |
|---|---|
| Airport | Chicago O'Hare International Airport (KORD) |
Arrival
| Time | N/A |
|---|---|
| Airport | Seattle–Tacoma International Airport (KSEA) |
| Time | Latitude | Longitude | Altitude | Speed | Heading |
|---|---|---|---|---|---|
| 2026-05-01 14:35 | 41.97411 | -87.89775 | 668 ft | 0 kts | 37° |
| 2026-05-01 14:57 | 41.97397 | -87.89789 | 667 ft | 3 kts | 37° |
| 2026-05-01 14:57 | 41.97365 | -87.89822 | 669 ft | 3 kts | 61° |
| 2026-05-01 14:57 | 41.97365 | -87.89840 | 669 ft | 1 kts | 147° |
| 2026-05-01 14:58 | 41.97372 | -87.89845 | 669 ft | 0 kts | 152° |
| 2026-05-01 14:58 | 41.97369 | -87.89843 | 667 ft | 2 kts | 151° |
| 2026-05-01 14:59 | 41.97342 | -87.89821 | 669 ft | 7 kts | 148° |
| 2026-05-01 14:59 | 41.97326 | -87.89807 | 667 ft | 0 kts | 145° |
| 2026-05-01 14:59 | 41.97322 | -87.89803 | 669 ft | 3 kts | 145° |
| 2026-05-01 15:00 | 41.97228 | -87.89701 | 669 ft | 9 kts | 129° |
| 2026-05-01 15:00 | 41.97230 | -87.89630 | 669 ft | 13 kts | 68° |
| 2026-05-01 15:00 | 41.97283 | -87.89491 | 669 ft | 18 kts | 55° |
| 2026-05-01 15:01 | 41.97386 | -87.89439 | 667 ft | 16 kts | 358° |
| 2026-05-01 15:01 | 41.97500 | -87.89432 | 669 ft | 16 kts | 4° |
| 2026-05-01 15:01 | 41.97612 | -87.89428 | 669 ft | 16 kts | 1° |
| 2026-05-01 15:01 | 41.97733 | -87.89430 | 669 ft | 18 kts | 358° |
| 2026-05-01 15:02 | 41.97856 | -87.89431 | 669 ft | 18 kts | 6° |
| 2026-05-01 15:02 | 41.97893 | -87.89418 | 668 ft | 17 kts | 21° |
| 2026-05-01 15:02 | 41.98031 | -87.89218 | 669 ft | 19 kts | 50° |
| 2026-05-01 15:02 | 41.98117 | -87.89081 | 668 ft | 20 kts | 50° |
| 2026-05-01 15:03 | 41.98208 | -87.88946 | 669 ft | 20 kts | 36° |
| 2026-05-01 15:03 | 41.98351 | -87.88918 | 667 ft | 23 kts | 360° |
| 2026-05-01 15:03 | 41.98503 | -87.88918 | 668 ft | 17 kts | 358° |
| 2026-05-01 15:03 | 41.98585 | -87.89013 | 668 ft | 16 kts | 313° |
| 2026-05-01 15:04 | 41.98671 | -87.89057 | 669 ft | 9 kts | 317° |
| 2026-05-01 15:04 | 41.98683 | -87.89174 | 669 ft | 16 kts | 270° |
| 2026-05-01 15:04 | 41.98683 | -87.89390 | 669 ft | 29 kts | 270° |
| 2026-05-01 15:04 | 41.98678 | -87.89659 | 669 ft | 28 kts | 270° |
| 2026-05-01 15:05 | 41.98679 | -87.89913 | 669 ft | 27 kts | 270° |
| 2026-05-01 15:05 | 41.98681 | -87.90169 | 669 ft | 27 kts | 270° |
| 2026-05-01 15:05 | 41.98679 | -87.90418 | 669 ft | 27 kts | 269° |
| 2026-05-01 15:05 | 41.98678 | -87.90657 | 669 ft | 26 kts | 270° |
| 2026-05-01 15:06 | 41.98677 | -87.90894 | 670 ft | 25 kts | 270° |
| 2026-05-01 15:06 | 41.98677 | -87.91132 | 669 ft | 27 kts | 270° |
| 2026-05-01 15:06 | 41.98677 | -87.91409 | 669 ft | 30 kts | 270° |
| 2026-05-01 15:06 | 41.98677 | -87.91685 | 669 ft | 29 kts | 270° |
| 2026-05-01 15:07 | 41.98678 | -87.91949 | 669 ft | 28 kts | 270° |
| 2026-05-01 15:07 | 41.98677 | -87.92203 | 669 ft | 26 kts | 269° |
| 2026-05-01 15:07 | 41.98678 | -87.92357 | 669 ft | 11 kts | 277° |
| 2026-05-01 15:07 | 41.98727 | -87.92405 | 670 ft | 11 kts | 354° |
| 2026-05-01 15:08 | 41.98802 | -87.92403 | 671 ft | 10 kts | 13° |
| 2026-05-01 15:08 | 41.98829 | -87.92350 | 671 ft | 7 kts | 82° |
| 2026-05-01 15:08 | 41.98832 | -87.92248 | 671 ft | 29 kts | 90° |
| 2026-05-01 15:08 | 41.98833 | -87.91626 | 669 ft | 102 kts | 90° |
| 2026-05-01 15:09 | 41.98831 | -87.90382 | 670 ft | 160 kts | 90° |
| 2026-05-01 15:09 | 41.98848 | -87.88814 | 1139 ft | 169 kts | 87° |
| 2026-05-01 15:09 | 41.98857 | -87.87717 | 1767 ft | 169 kts | 84° |
| 2026-05-01 15:09 | 41.99526 | -87.85954 | 2607 ft | 171 kts | 32° |
| 2026-05-01 15:10 | 42.00689 | -87.85493 | 2767 ft | 185 kts | 359° |
| 2026-05-01 15:10 | 42.02937 | -87.86121 | 3037 ft | 211 kts | 330° |
| 2026-05-01 15:10 | 42.03910 | -87.87613 | 3180 ft | 234 kts | 294° |
| 2026-05-01 15:11 | 42.04333 | -87.89835 | 3617 ft | 247 kts | 284° |
| 2026-05-01 15:11 | 42.04947 | -87.94448 | 4937 ft | 252 kts | 282° |
| 2026-05-01 15:11 | 42.05235 | -87.96699 | 5574 ft | 255 kts | 281° |
| 2026-05-01 15:12 | 42.05538 | -87.99032 | 6231 ft | 256 kts | 281° |
| 2026-05-01 15:12 | 42.06171 | -88.03810 | 7534 ft | 260 kts | 281° |
| 2026-05-01 15:12 | 42.06493 | -88.06213 | 8151 ft | 262 kts | 282° |
| 2026-05-01 15:13 | 42.07467 | -88.13454 | 9959 ft | 268 kts | 282° |
| 2026-05-01 15:14 | 42.08138 | -88.18421 | 10826 ft | 286 kts | 282° |
| 2026-05-01 15:14 | 42.08476 | -88.20938 | 10959 ft | 303 kts | 282° |
| 2026-05-01 15:14 | 42.09256 | -88.26781 | 11220 ft | 338 kts | 281° |
| 2026-05-01 15:15 | 42.10127 | -88.33328 | 11498 ft | 369 kts | 281° |
| 2026-05-01 15:15 | 42.11016 | -88.40065 | 12485 ft | 377 kts | 281° |
| 2026-05-01 15:16 | 42.11930 | -88.47041 | 13631 ft | 380 kts | 281° |
| 2026-05-01 15:16 | 42.12860 | -88.54091 | 14749 ft | 383 kts | 281° |
| 2026-05-01 15:17 | 42.13790 | -88.61188 | 15775 ft | 387 kts | 281° |
| 2026-05-01 15:18 | 42.15187 | -88.71972 | 17169 ft | 392 kts | 281° |
| 2026-05-01 15:18 | 42.15651 | -88.75596 | 17593 ft | 394 kts | 281° |
| 2026-05-01 15:19 | 42.16192 | -88.86704 | 18766 ft | 402 kts | 270° |
| 2026-05-01 15:19 | 42.16006 | -88.94235 | 19536 ft | 406 kts | 270° |
| 2026-05-01 15:19 | 42.15911 | -88.98080 | 19889 ft | 409 kts | 270° |
| 2026-05-01 15:20 | 42.15722 | -89.05585 | 20568 ft | 414 kts | 270° |
| 2026-05-01 15:20 | 42.15625 | -89.09493 | 20907 ft | 416 kts | 270° |
| 2026-05-01 15:20 | 42.15526 | -89.13401 | 21247 ft | 418 kts | 270° |
| 2026-05-01 15:21 | 42.15427 | -89.17164 | 21574 ft | 420 kts | 269° |
| 2026-05-01 15:21 | 42.15320 | -89.21156 | 21881 ft | 422 kts | 269° |
| 2026-05-01 15:21 | 42.15211 | -89.25118 | 22186 ft | 424 kts | 269° |
| 2026-05-01 15:21 | 42.15104 | -89.29082 | 22481 ft | 426 kts | 269° |
| 2026-05-01 15:22 | 42.14884 | -89.37034 | 23072 ft | 430 kts | 269° |
| 2026-05-01 15:22 | 42.14766 | -89.41139 | 23358 ft | 432 kts | 269° |
| 2026-05-01 15:22 | 42.14649 | -89.45126 | 23641 ft | 434 kts | 269° |
| 2026-05-01 15:23 | 42.14530 | -89.49164 | 23932 ft | 435 kts | 269° |
| 2026-05-01 15:23 | 42.14408 | -89.53256 | 24352 ft | 434 kts | 269° |
| 2026-05-01 15:23 | 42.14286 | -89.57379 | 24783 ft | 432 kts | 269° |
| 2026-05-01 15:23 | 42.14165 | -89.61439 | 25201 ft | 431 kts | 269° |
| 2026-05-01 15:24 | 42.14045 | -89.65359 | 25586 ft | 430 kts | 269° |
| 2026-05-01 15:24 | 42.13919 | -89.69420 | 26005 ft | 428 kts | 269° |
| 2026-05-01 15:24 | 42.13794 | -89.73414 | 26402 ft | 426 kts | 269° |
| 2026-05-01 15:24 | 42.13666 | -89.77443 | 26820 ft | 425 kts | 269° |
| 2026-05-01 15:25 | 42.13542 | -89.81366 | 27199 ft | 423 kts | 269° |
| 2026-05-01 15:25 | 42.13418 | -89.85297 | 27568 ft | 422 kts | 269° |
| 2026-05-01 15:25 | 42.13288 | -89.89255 | 27950 ft | 421 kts | 268° |
| 2026-05-01 15:25 | 42.13155 | -89.93196 | 28333 ft | 419 kts | 268° |
| 2026-05-01 15:26 | 42.13023 | -89.97100 | 28711 ft | 417 kts | 268° |
| 2026-05-01 15:26 | 42.12890 | -90.01004 | 29065 ft | 416 kts | 268° |
| 2026-05-01 15:26 | 42.12758 | -90.04881 | 29406 ft | 415 kts | 268° |
| 2026-05-01 15:26 | 42.12625 | -90.08771 | 29751 ft | 413 kts | 268° |
| 2026-05-01 15:27 | 42.12493 | -90.12630 | 30081 ft | 412 kts | 268° |
| 2026-05-01 15:27 | 42.12361 | -90.16483 | 30419 ft | 411 kts | 268° |
| 2026-05-01 15:27 | 42.12228 | -90.20313 | 30723 ft | 410 kts | 268° |
| 2026-05-01 15:28 | 42.11951 | -90.27990 | 31271 ft | 410 kts | 268° |
| 2026-05-01 15:28 | 42.11811 | -90.31823 | 31556 ft | 409 kts | 268° |
| 2026-05-01 15:28 | 42.11676 | -90.35540 | 31821 ft | 408 kts | 268° |
| 2026-05-01 15:29 | 42.11384 | -90.43297 | 32124 ft | 412 kts | 268° |
| 2026-05-01 15:29 | 42.11238 | -90.47158 | 32132 ft | 414 kts | 268° |
| 2026-05-01 15:30 | 42.10648 | -90.62691 | 32121 ft | 416 kts | 268° |
| 2026-05-01 15:31 | 42.09709 | -90.86026 | 32130 ft | 418 kts | 268° |
| 2026-05-01 15:32 | 42.09056 | -91.01654 | 32135 ft | 419 kts | 267° |
| 2026-05-01 15:34 | 42.08052 | -91.25140 | 32134 ft | 420 kts | 271° |